Time;durP1;ratioP1;P1;durP2;ratioP2;P2;SDS_P1;SDS_P2;PMS_P1;PMS_P2;Temp;Humidity;BMP_temperature;BMP_pressure;BME280_temperature;BME280_humidity;BME280_pressure;Samples;Min_cycle;Max_cycle;Signal;HPM_P1;HPM_P2
2023/10/21 00:01:32;;;;;;;23.93;14.20;;;11.50;99.90;;;;;;4223984;27;20208;-75
2023/10/21 00:03:34;;;;;;;23.93;14.47;;;11.50;99.90;;;;;;4218823;27;20622;-75
2023/10/21 00:05:36;;;;;;;24.03;15.13;;;11.60;99.90;;;;;;4223470;27;20440;-74
2023/10/21 00:07:38;;;;;;;25.33;14.30;;;11.60;99.90;;;;;;4222246;28;20197;-75
2023/10/21 00:09:40;;;;;;;22.63;13.63;;;11.60;99.90;;;;;;4222431;27;20651;-74
2023/10/21 00:11:42;;;;;;;26.30;14.37;;;11.60;99.90;;;;;;4220511;28;20257;-75
2023/10/21 00:13:44;;;;;;;26.93;14.20;;;11.60;99.90;;;;;;4220225;28;20277;-75
2023/10/21 00:15:46;;;;;;;20.93;12.83;;;11.60;99.90;;;;;;4220129;28;20205;-75
2023/10/21 00:17:49;;;;;;;22.00;12.67;;;11.60;99.90;;;;;;4220146;27;20749;-75
2023/10/21 00:19:54;;;;;;;21.50;12.77;;;11.60;99.90;;;;;;4221891;27;20708;-75
2023/10/21 00:21:55;;;;;;;20.43;11.73;;;11.60;99.90;;;;;;4223359;28;20273;-75
2023/10/21 00:23:57;;;;;;;18.57;10.80;;;11.70;99.90;;;;;;4223425;28;20265;-75
2023/10/21 00:26:02;;;;;;;22.33;12.50;;;11.50;99.90;;;;;;4221940;27;20755;-75
2023/10/21 00:28:05;;;;;;;19.70;12.33;;;11.50;99.90;;;;;;4222572;28;20212;-75
2023/10/21 00:30:07;;;;;;;18.67;11.40;;;11.50;99.90;;;;;;4221711;28;20217;-75
2023/10/21 00:32:09;;;;;;;19.07;11.20;;;11.50;99.90;;;;;;4222412;28;20212;-75
2023/10/21 00:34:12;;;;;;;17.33;10.83;;;11.50;99.90;;;;;;4218793;27;20269;-75
2023/10/21 00:36:14;;;;;;;18.73;11.30;;;11.50;99.90;;;;;;4220018;27;20205;-75
2023/10/21 00:38:16;;;;;;;20.13;11.23;;;11.50;99.90;;;;;;4221714;28;20259;-75
2023/10/21 00:40:18;;;;;;;21.40;11.90;;;11.50;99.90;;;;;;4221849;28;20213;-75
2023/10/21 00:42:20;;;;;;;18.33;11.23;;;11.40;99.90;;;;;;4218989;28;20264;-75
2023/10/21 00:44:22;;;;;;;21.27;11.67;;;11.40;99.90;;;;;;4220016;27;20217;-75
2023/10/21 00:46:26;;;;;;;19.30;10.77;;;11.40;99.90;;;;;;4223072;28;20269;-75
2023/10/21 00:48:28;;;;;;;15.20;10.23;;;11.50;99.90;;;;;;4222412;28;20631;-75
2023/10/21 00:50:32;;;;;;;18.03;9.60;;;11.50;99.90;;;;;;4221525;28;20566;-74
2023/10/21 00:52:39;;;;;;;16.67;9.87;;;11.50;99.90;;;;;;4218640;28;20251;-75
2023/10/21 00:54:41;;;;;;;15.17;9.27;;;11.50;99.90;;;;;;4221420;28;20261;-76
2023/10/21 00:56:43;;;;;;;16.07;9.73;;;11.50;99.90;;;;;;4218361;27;20233;-76
2023/10/21 00:58:44;;;;;;;18.73;9.50;;;11.50;99.90;;;;;;4217089;28;20213;-75
2023/10/21 01:00:46;;;;;;;14.80;8.87;;;11.50;99.90;;;;;;4222564;27;20392;-75
2023/10/21 01:02:48;;;;;;;13.07;8.43;;;11.50;99.90;;;;;;4220231;27;20327;-75
2023/10/21 01:04:50;;;;;;;16.93;9.07;;;11.50;99.90;;;;;;4222043;28;20209;-74
2023/10/21 01:06:55;;;;;;;14.00;8.03;;;11.50;99.90;;;;;;4220186;28;20208;-75
2023/10/21 01:08:57;;;;;;;12.90;7.70;;;11.60;99.90;;;;;;4219950;28;20216;-75
2023/10/21 01:10:58;;;;;;;14.03;7.57;;;11.50;99.90;;;;;;4219488;28;20269;-75
2023/10/21 01:13:00;;;;;;;11.83;7.37;;;11.50;99.90;;;;;;4221379;28;20213;-75
2023/10/21 01:15:02;;;;;;;14.93;7.00;;;11.60;99.90;;;;;;4225492;28;20627;-75
2023/10/21 01:17:04;;;;;;;10.47;6.73;;;11.60;99.90;;;;;;4221639;27;20257;-75
2023/10/21 01:19:07;;;;;;;11.07;7.00;;;11.70;99.90;;;;;;4220222;28;20761;-75
2023/10/21 01:21:09;;;;;;;12.30;7.03;;;11.60;99.90;;;;;;4220937;28;20258;-75
2023/10/21 01:23:14;;;;;;;10.33;6.33;;;11.60;99.90;;;;;;4219791;27;20225;-74
2023/10/21 01:25:16;;;;;;;10.23;6.00;;;11.70;99.90;;;;;;4222179;28;20228;-74
2023/10/21 01:27:18;;;;;;;8.93;5.80;;;11.70;99.90;;;;;;4222014;28;20217;-75
2023/10/21 01:29:20;;;;;;;8.50;5.20;;;11.70;99.90;;;;;;4220834;27;20213;-75
2023/10/21 01:31:22;;;;;;;9.67;5.20;;;11.70;99.90;;;;;;4219724;28;21249;-75
2023/10/21 01:33:27;;;;;;;8.27;5.30;;;11.70;99.90;;;;;;4219674;28;20910;-75
2023/10/21 01:35:29;;;;;;;7.93;5.00;;;11.80;99.90;;;;;;4220535;28;20204;-75
2023/10/21 01:37:31;;;;;;;6.90;4.80;;;11.80;99.90;;;;;;4220992;28;20268;-75
2023/10/21 01:39:37;;;;;;;8.17;4.73;;;11.80;99.90;;;;;;4220564;28;20740;-75
2023/10/21 01:41:39;;;;;;;8.77;4.97;;;11.80;99.90;;;;;;4219301;28;20303;-76
2023/10/21 01:43:41;;;;;;;6.53;4.60;;;11.80;99.90;;;;;;4221469;28;20583;-76
2023/10/21 01:45:43;;;;;;;9.83;4.87;;;11.80;99.90;;;;;;4219695;28;20712;-75
2023/10/21 01:47:45;;;;;;;9.57;4.83;;;11.90;99.90;;;;;;4221845;28;20567;-75
2023/10/21 01:49:47;;;;;;;7.23;4.63;;;11.80;99.90;;;;;;4221862;28;20200;-76
2023/10/21 01:51:49;;;;;;;8.67;4.60;;;11.90;99.90;;;;;;4221160;28;20227;-76
2023/10/21 01:53:51;;;;;;;5.97;4.23;;;11.90;99.90;;;;;;4219781;28;20202;-76
2023/10/21 01:56:01;;;;;;;6.80;4.73;;;11.90;99.90;;;;;;4221283;28;20197;-76
2023/10/21 01:58:04;;;;;;;6.97;4.93;;;11.90;99.90;;;;;;4220900;28;20305;-76
2023/10/21 02:00:09;;;;;;;7.20;4.70;;;11.90;99.90;;;;;;4220647;28;20560;-75
2023/10/21 02:02:10;;;;;;;7.77;5.20;;;11.90;99.90;;;;;;4217690;28;20247;-75
2023/10/21 02:04:12;;;;;;;7.97;4.73;;;11.90;99.90;;;;;;4218683;28;20198;-75
2023/10/21 02:06:14;;;;;;;8.87;5.27;;;11.90;99.90;;;;;;4222418;28;20220;-75
2023/10/21 02:08:16;;;;;;;6.50;4.37;;;11.90;99.90;;;;;;4220043;28;20269;-75
2023/10/21 02:10:18;;;;;;;6.97;4.60;;;11.90;99.90;;;;;;4221034;28;20216;-75
2023/10/21 02:12:22;;;;;;;7.97;5.10;;;11.90;99.90;;;;;;4221719;28;20224;-75
2023/10/21 02:14:24;;;;;;;8.13;5.43;;;11.90;99.90;;;;;;4220151;28;20257;-75
2023/10/21 02:16:27;;;;;;;9.33;5.30;;;11.90;99.90;;;;;;4222328;28;20204;-75
2023/10/21 02:18:31;;;;;;;7.50;4.90;;;11.90;99.90;;;;;;4220720;28;20684;-75
2023/10/21 02:20:33;;;;;;;7.53;5.23;;;12.00;99.90;;;;;;4219682;28;20204;-75
2023/10/21 02:22:36;;;;;;;7.17;5.07;;;12.00;99.90;;;;;;4219064;28;20221;-75
2023/10/21 02:24:38;;;;;;;8.23;5.47;;;12.00;99.90;;;;;;4219308;28;20254;-75
2023/10/21 02:26:40;;;;;;;7.37;4.87;;;12.00;99.90;;;;;;4221003;27;20225;-75
2023/10/21 02:28:44;;;;;;;8.93;5.17;;;12.00;99.90;;;;;;4222727;28;20208;-75
2023/10/21 02:30:46;;;;;;;7.47;4.90;;;12.00;99.90;;;;;;4222517;28;20257;-75
2023/10/21 02:32:50;;;;;;;7.70;5.27;;;12.10;99.90;;;;;;4218994;28;20227;-75
2023/10/21 02:34:55;;;;;;;7.17;4.90;;;12.10;99.90;;;;;;4218026;28;20733;-75
2023/10/21 02:36:57;;;;;;;7.13;5.00;;;12.10;99.90;;;;;;4234286;28;20205;-75
2023/10/21 02:38:59;;;;;;;7.20;5.10;;;12.10;99.90;;;;;;4239946;28;20688;-74
2023/10/21 02:41:02;;;;;;;8.17;5.13;;;12.10;99.90;;;;;;4235767;27;20206;-75
2023/10/21 02:43:05;;;;;;;8.20;5.63;;;12.00;99.90;;;;;;4236213;28;20229;-74
2023/10/21 02:45:10;;;;;;;8.20;5.27;;;12.00;99.90;;;;;;4242381;28;20211;-74
2023/10/21 02:47:12;;;;;;;8.83;5.50;;;12.00;99.90;;;;;;4234023;28;20293;-74
2023/10/21 02:49:14;;;;;;;8.30;5.57;;;12.00;99.90;;;;;;4238133;27;20209;-74
2023/10/21 02:51:18;;;;;;;10.73;6.40;;;12.00;99.90;;;;;;4230121;27;20208;-75
2023/10/21 02:53:20;;;;;;;8.40;5.73;;;12.00;99.90;;;;;;4223014;28;20635;-75
2023/10/21 02:55:22;;;;;;;10.63;6.23;;;11.90;99.90;;;;;;4222945;28;20270;-75
2023/10/21 02:57:24;;;;;;;8.63;6.23;;;11.90;99.90;;;;;;4222137;27;20209;-75
2023/10/21 02:59:26;;;;;;;9.37;6.43;;;11.90;99.90;;;;;;4222824;28;20214;-75
2023/10/21 03:01:30;;;;;;;9.40;6.33;;;11.90;99.90;;;;;;4223810;28;20235;-76
2023/10/21 03:03:32;;;;;;;7.93;5.83;;;11.80;99.90;;;;;;4220784;28;20270;-75
2023/10/21 03:05:33;;;;;;;11.27;6.57;;;11.80;99.90;;;;;;4223420;27;20793;-75
2023/10/21 03:07:35;;;;;;;10.60;6.50;;;11.80;99.90;;;;;;4223862;27;20197;-75
2023/10/21 03:09:36;;;;;;;11.77;6.67;;;11.80;99.90;;;;;;4228050;28;20229;-73
2023/10/21 03:11:38;;;;;;;11.83;6.30;;;11.70;99.90;;;;;;4226323;27;20798;-73
2023/10/21 03:13:41;;;;;;;11.03;7.40;;;11.70;99.90;;;;;;4227380;28;20252;-73
2023/10/21 03:15:43;;;;;;;10.97;7.10;;;11.70;99.90;;;;;;4228702;28;20224;-76
2023/10/21 03:17:46;;;;;;;12.77;8.10;;;11.70;99.90;;;;;;4229365;27;20240;-73
2023/10/21 03:19:48;;;;;;;12.07;7.53;;;11.70;99.90;;;;;;4225247;27;20237;-73
2023/10/21 03:21:50;;;;;;;10.93;7.10;;;11.70;99.90;;;;;;4230347;27;20227;-73
2023/10/21 03:23:52;;;;;;;10.83;7.00;;;11.70;99.90;;;;;;4232330;27;20213;-75
2023/10/21 03:25:56;;;;;;;12.37;8.10;;;11.70;99.90;;;;;;4229635;27;20722;-74
2023/10/21 03:27:58;;;;;;;12.13;7.70;;;11.70;99.90;;;;;;4227694;28;20706;-74
2023/10/21 03:30:00;;;;;;;13.47;7.90;;;11.80;99.90;;;;;;4228214;28;20308;-73
2023/10/21 03:32:02;;;;;;;10.37;6.77;;;11.80;99.90;;;;;;4223689;28;20569;-74
2023/10/21 03:34:05;;;;;;;10.73;6.90;;;11.80;99.90;;;;;;4230092;27;20575;-73
2023/10/21 03:36:08;;;;;;;11.13;6.93;;;11.80;99.90;;;;;;4230677;28;20200;-73
2023/10/21 03:38:10;;;;;;;10.40;6.93;;;11.70;99.90;;;;;;4228119;28;20235;-74
2023/10/21 03:40:13;;;;;;;11.40;7.50;;;11.70;99.90;;;;;;4225633;27;20247;-75
2023/10/21 03:42:15;;;;;;;11.50;7.20;;;11.70;99.90;;;;;;4226613;28;20604;-75
2023/10/21 03:44:16;;;;;;;13.10;7.70;;;11.70;99.90;;;;;;4222667;28;20209;-75
2023/10/21 03:46:20;;;;;;;11.77;7.50;;;11.70;99.90;;;;;;4220474;27;20231;-75
2023/10/21 03:48:21;;;;;;;13.97;7.93;;;11.60;99.90;;;;;;4225681;27;20240;-76
2023/10/21 03:50:26;;;;;;;14.57;8.47;;;11.60;99.90;;;;;;4224508;28;20203;-76
2023/10/21 03:52:27;;;;;;;14.67;8.30;;;11.50;99.90;;;;;;4223497;28;20275;-76
2023/10/21 03:54:29;;;;;;;12.10;8.10;;;11.50;99.90;;;;;;4222621;27;20209;-76
2023/10/21 03:56:31;;;;;;;12.47;7.90;;;11.50;99.90;;;;;;4223853;28;20205;-75
2023/10/21 03:58:34;;;;;;;17.13;8.30;;;11.50;99.90;;;;;;4218757;28;20200;-75
2023/10/21 04:00:35;;;;;;;14.40;7.87;;;11.50;99.90;;;;;;4222479;27;20617;-75
2023/10/21 04:02:37;;;;;;;12.13;7.60;;;11.40;99.90;;;;;;4219336;27;20217;-76
2023/10/21 04:04:38;;;;;;;12.70;7.73;;;11.40;99.90;;;;;;4225375;27;21772;-75
2023/10/21 04:06:41;;;;;;;11.57;7.37;;;11.40;99.90;;;;;;4221101;27;20248;-76
2023/10/21 04:08:43;;;;;;;11.93;7.20;;;11.40;99.90;;;;;;4220713;27;20292;-75
2023/10/21 04:10:44;;;;;;;11.00;7.13;;;11.30;99.90;;;;;;4221366;27;20737;-75
2023/10/21 04:12:46;;;;;;;14.97;8.20;;;11.30;99.90;;;;;;4220005;27;20224;-76
2023/10/21 04:14:48;;;;;;;11.90;7.57;;;11.30;99.90;;;;;;4221538;28;20632;-76
2023/10/21 04:16:50;;;;;;;13.93;7.87;;;11.30;99.90;;;;;;4223347;28;20197;-76
2023/10/21 04:18:52;;;;;;;11.67;7.33;;;11.30;99.90;;;;;;4219462;27;20215;-76
2023/10/21 04:20:55;;;;;;;11.33;7.77;;;11.30;99.90;;;;;;4221736;28;20268;-76
2023/10/21 04:22:58;;;;;;;15.30;8.33;;;11.30;99.90;;;;;;4221879;27;20221;-76
2023/10/21 04:25:01;;;;;;;13.33;7.93;;;11.30;99.90;;;;;;4221052;27;20209;-76
2023/10/21 04:27:05;;;;;;;13.07;7.90;;;11.30;99.90;;;;;;4221873;28;20233;-75
2023/10/21 04:29:07;;;;;;;12.83;8.60;;;11.30;99.90;;;;;;4220409;28;20222;-76
2023/10/21 04:31:08;;;;;;;13.10;7.93;;;11.30;99.90;;;;;;4221873;27;20208;-75
2023/10/21 04:33:12;;;;;;;12.60;8.10;;;11.20;99.90;;;;;;4223250;28;20253;-76
2023/10/21 04:35:14;;;;;;;12.10;7.97;;;11.20;99.90;;;;;;4221636;27;20204;-76
2023/10/21 04:37:15;;;;;;;13.07;7.33;;;11.20;99.90;;;;;;4225805;28;20566;-75
2023/10/21 04:39:18;;;;;;;13.13;7.73;;;11.20;99.90;;;;;;4221486;28;20212;-76
2023/10/21 04:41:19;;;;;;;15.67;9.00;;;11.20;99.90;;;;;;4219027;28;20648;-75
2023/10/21 04:43:21;;;;;;;14.60;8.20;;;11.20;99.90;;;;;;4219394;28;20192;-76
2023/10/21 04:45:22;;;;;;;11.90;7.40;;;11.30;99.90;;;;;;4220868;28;20196;-76
2023/10/21 04:47:25;;;;;;;10.80;6.63;;;11.20;99.90;;;;;;4221195;28;20232;-76
2023/10/21 04:49:26;;;;;;;11.70;7.37;;;11.20;99.90;;;;;;4223277;27;20647;-76
2023/10/21 04:51:28;;;;;;;12.80;7.20;;;11.20;99.90;;;;;;4221876;28;20483;-75
2023/10/21 04:53:30;;;;;;;10.27;6.70;;;11.20;99.90;;;;;;4220209;27;20254;-75
2023/10/21 04:55:33;;;;;;;9.00;6.47;;;11.20;99.90;;;;;;4224180;27;20600;-76
2023/10/21 04:57:35;;;;;;;11.53;6.13;;;11.20;99.90;;;;;;4219780;27;20665;-75
2023/10/21 04:59:38;;;;;;;11.23;6.63;;;11.30;99.90;;;;;;4224751;27;20260;-75
2023/10/21 05:01:40;;;;;;;9.17;6.00;;;11.30;99.90;;;;;;4225060;28;20221;-75
2023/10/21 05:03:41;;;;;;;9.60;6.27;;;11.20;99.90;;;;;;4234818;28;20216;-75
2023/10/21 05:05:43;;;;;;;10.30;5.80;;;11.20;99.90;;;;;;4236405;27;20204;-75
2023/10/21 05:07:45;;;;;;;8.83;5.70;;;11.30;99.90;;;;;;4231761;28;20226;-75
2023/10/21 05:09:47;;;;;;;10.70;5.83;;;11.20;99.90;;;;;;4222101;27;20204;-76
2023/10/21 05:11:51;;;;;;;9.27;5.87;;;11.20;99.90;;;;;;4220855;28;20786;-76
2023/10/21 05:13:53;;;;;;;12.20;5.33;;;11.20;99.90;;;;;;4223137;28;20208;-76
2023/10/21 05:15:54;;;;;;;7.23;5.20;;;11.20;99.90;;;;;;4225294;28;20211;-75
2023/10/21 05:17:57;;;;;;;8.80;5.03;;;11.20;99.90;;;;;;4219838;27;20262;-76
2023/10/21 05:19:59;;;;;;;8.03;5.13;;;11.20;99.90;;;;;;4220753;27;20304;-76
2023/10/21 05:22:02;;;;;;;8.80;4.67;;;11.20;99.90;;;;;;4221677;27;20702;-76
2023/10/21 05:24:05;;;;;;;9.97;5.17;;;11.20;99.90;;;;;;4221401;28;20563;-76
2023/10/21 05:26:07;;;;;;;10.27;5.47;;;11.30;99.90;;;;;;4219270;28;20204;-75
2023/10/21 05:28:10;;;;;;;6.30;4.23;;;11.20;99.90;;;;;;4222469;27;20242;-75
2023/10/21 05:30:13;;;;;;;7.13;5.13;;;11.20;99.90;;;;;;4218786;28;20212;-76
2023/10/21 05:32:15;;;;;;;9.73;4.50;;;11.20;99.90;;;;;;4222948;27;20233;-75
2023/10/21 05:34:19;;;;;;;6.90;4.53;;;11.20;99.90;;;;;;4221225;28;20304;-75
2023/10/21 05:36:21;;;;;;;7.13;4.70;;;11.20;99.90;;;;;;4222234;28;20220;-76
2023/10/21 05:38:23;;;;;;;6.97;4.40;;;11.20;99.90;;;;;;4221715;28;20302;-76
2023/10/21 05:40:26;;;;;;;6.07;4.20;;;11.20;99.90;;;;;;4222244;28;20241;-76
2023/10/21 05:42:27;;;;;;;4.70;3.53;;;11.20;99.90;;;;;;4220535;28;20242;-76
2023/10/21 05:44:31;;;;;;;5.87;3.20;;;11.20;99.90;;;;;;4221789;28;20229;-75
2023/10/21 05:46:33;;;;;;;3.63;2.83;;;11.30;99.90;;;;;;4219549;28;20255;-75
2023/10/21 05:48:35;;;;;;;3.77;2.67;;;11.30;99.90;;;;;;4223165;28;20196;-75
2023/10/21 05:50:37;;;;;;;4.00;2.67;;;11.30;99.90;;;;;;4222485;28;20216;-76
2023/10/21 05:52:37;;;;;;;4.00;2.53;;;11.30;99.90;;;;;;4222005;27;20228;-76
2023/10/21 05:54:39;;;;;;;3.57;2.47;;;11.40;99.90;;;;;;4223530;28;20222;-75
2023/10/21 05:56:41;;;;;;;2.93;2.13;;;11.40;99.90;;;;;;4223795;28;20760;-75
2023/10/21 05:58:43;;;;;;;5.37;2.00;;;11.50;99.90;;;;;;4217797;28;20217;-76
2023/10/21 06:00:47;;;;;;;1.90;1.40;;;11.50;99.90;;;;;;4216890;28;20556;-75
2023/10/21 06:02:48;;;;;;;3.17;2.33;;;11.60;99.90;;;;;;4224807;28;20221;-76
2023/10/21 06:04:50;;;;;;;5.10;1.50;;;11.70;99.90;;;;;;4223571;28;20214;-75
2023/10/21 06:06:54;;;;;;;3.13;1.50;;;11.70;99.90;;;;;;4216835;28;20225;-75
2023/10/21 06:08:56;;;;;;;2.60;1.87;;;11.80;99.90;;;;;;4220154;28;20208;-76
2023/10/21 06:10:57;;;;;;;1.83;1.30;;;11.90;99.90;;;;;;4219361;28;20212;-75
2023/10/21 06:12:59;;;;;;;1.30;1.17;;;11.90;99.90;;;;;;4216275;28;20348;-76
2023/10/21 06:15:01;;;;;;;1.47;1.20;;;12.00;99.90;;;;;;4220281;28;20219;-75
2023/10/21 06:17:04;;;;;;;2.00;1.37;;;12.10;99.90;;;;;;4220394;28;20680;-75
2023/10/21 06:19:06;;;;;;;2.87;1.20;;;12.10;99.90;;;;;;4220945;28;20265;-76
2023/10/21 06:21:08;;;;;;;2.13;1.50;;;12.20;99.90;;;;;;4220201;28;20732;-75
2023/10/21 06:23:10;;;;;;;1.13;0.93;;;12.20;99.90;;;;;;4219735;28;20251;-75
2023/10/21 06:25:16;;;;;;;1.27;1.10;;;12.20;99.90;;;;;;4218754;28;20212;-75
2023/10/21 06:27:21;;;;;;;2.90;1.10;;;12.30;99.90;;;;;;4220949;28;20230;-77
2023/10/21 06:29:23;;;;;;;3.37;1.43;;;12.40;99.90;;;;;;4220349;28;20557;-75
2023/10/21 06:31:26;;;;;;;2.93;1.60;;;12.40;99.90;;;;;;4216438;28;20578;-76
2023/10/21 06:33:29;;;;;;;2.00;1.40;;;12.50;99.90;;;;;;4220283;28;20752;-75
2023/10/21 06:35:32;;;;;;;2.07;1.03;;;12.60;99.90;;;;;;4220912;28;20202;-75
2023/10/21 06:37:35;;;;;;;1.90;1.13;;;12.60;99.90;;;;;;4220614;28;20208;-77
2023/10/21 06:39:36;;;;;;;1.00;0.90;;;12.70;99.90;;;;;;4221970;27;20206;-77
2023/10/21 06:41:38;;;;;;;2.60;0.80;;;12.70;99.90;;;;;;4226570;27;20283;-76
2023/10/21 06:43:41;;;;;;;2.27;0.90;;;12.70;99.90;;;;;;4224266;28;20653;-76
2023/10/21 06:45:45;;;;;;;1.23;0.80;;;12.80;99.90;;;;;;4224211;27;20234;-76
2023/10/21 06:47:46;;;;;;;4.57;1.00;;;12.80;99.90;;;;;;4222974;27;20226;-76
2023/10/21 06:49:49;;;;;;;1.50;0.90;;;12.80;99.90;;;;;;4223672;27;20635;-76
2023/10/21 06:51:52;;;;;;;2.07;1.00;;;12.80;99.90;;;;;;4222807;28;20221;-76
2023/10/21 06:53:54;;;;;;;1.53;1.00;;;12.90;99.90;;;;;;4225741;27;20212;-76
2023/10/21 06:55:57;;;;;;;1.17;0.97;;;12.90;99.90;;;;;;4225210;27;20240;-76
2023/10/21 06:57:59;;;;;;;1.90;0.90;;;13.00;99.90;;;;;;4225449;27;20289;-76
2023/10/21 07:00:02;;;;;;;3.33;1.50;;;13.00;99.90;;;;;;4225397;27;20238;-77
2023/10/21 07:02:04;;;;;;;3.50;1.87;;;13.00;99.90;;;;;;4225791;27;20297;-77
2023/10/21 07:04:06;;;;;;;1.33;1.07;;;13.10;99.90;;;;;;4226943;27;20215;-77
2023/10/21 07:06:11;;;;;;;1.30;0.60;;;13.10;99.90;;;;;;4223267;27;20256;-77
2023/10/21 07:08:13;;;;;;;1.13;0.90;;;13.20;99.90;;;;;;4221119;27;20229;-77
2023/10/21 07:10:15;;;;;;;1.00;0.80;;;13.20;99.90;;;;;;4221213;28;20264;-76
2023/10/21 07:12:18;;;;;;;2.47;0.90;;;13.30;99.90;;;;;;4226067;28;20233;-76
2023/10/21 07:14:20;;;;;;;3.00;0.90;;;13.30;99.90;;;;;;4226996;27;20277;-76
2023/10/21 07:16:22;;;;;;;1.77;0.80;;;13.40;99.90;;;;;;4227461;27;20327;-76
2023/10/21 07:18:24;;;;;;;3.33;1.13;;;13.40;99.90;;;;;;4227241;27;20203;-76
2023/10/21 07:20:27;;;;;;;2.10;0.73;;;13.40;99.90;;;;;;4228562;27;20206;-76
2023/10/21 07:22:30;;;;;;;3.67;0.70;;;13.60;99.90;;;;;;4235712;27;20236;-76
2023/10/21 07:24:32;;;;;;;2.83;1.13;;;13.60;99.90;;;;;;4231974;27;20203;-76
2023/10/21 07:26:34;;;;;;;4.40;1.10;;;13.60;99.90;;;;;;4233182;28;20577;-76
2023/10/21 07:28:36;;;;;;;1.40;0.80;;;13.70;99.90;;;;;;4232394;28;20231;-76
2023/10/21 07:30:38;;;;;;;1.30;0.77;;;13.70;99.90;;;;;;4236793;27;20206;-77
2023/10/21 07:32:40;;;;;;;2.43;0.50;;;13.70;99.90;;;;;;4232285;27;20584;-75
2023/10/21 07:34:41;;;;;;;0.60;0.50;;;13.80;99.90;;;;;;4221975;28;20197;-76
2023/10/21 07:36:43;;;;;;;1.80;0.70;;;13.90;99.90;;;;;;4230264;27;20664;-75
2023/10/21 07:38:46;;;;;;;3.33;0.80;;;14.00;99.90;;;;;;4226373;28;20265;-76
2023/10/21 07:40:50;;;;;;;2.77;0.83;;;14.00;99.90;;;;;;4224157;28;20731;-76
2023/10/21 07:42:54;;;;;;;1.80;0.60;;;14.00;99.90;;;;;;4225745;27;20232;-75
2023/10/21 07:44:55;;;;;;;1.67;0.80;;;14.00;99.90;;;;;;4223130;27;20261;-77
2023/10/21 07:46:56;;;;;;;1.33;0.70;;;14.10;99.90;;;;;;4223593;28;20699;-77
2023/10/21 07:48:58;;;;;;;6.33;0.90;;;14.20;99.90;;;;;;4220665;27;20216;-76
2023/10/21 07:51:01;;;;;;;3.00;0.90;;;14.20;99.90;;;;;;4226695;27;20291;-75
2023/10/21 07:53:03;;;;;;;1.37;0.80;;;14.30;99.90;;;;;;4222263;27;20224;-74
2023/10/21 07:55:06;;;;;;;4.73;0.97;;;14.30;99.90;;;;;;4224813;28;20748;-78
2023/10/21 07:57:09;;;;;;;1.00;0.80;;;14.30;99.90;;;;;;4227307;27;20207;-77
2023/10/21 07:59:11;;;;;;;0.90;0.70;;;14.40;99.90;;;;;;4224352;27;20691;-76
2023/10/21 08:01:13;;;;;;;0.80;0.80;;;14.50;99.90;;;;;;4226812;28;20243;-76
2023/10/21 08:03:15;;;;;;;1.30;0.90;;;14.40;99.90;;;;;;4227465;27;20258;-77
2023/10/21 08:05:17;;;;;;;1.20;0.90;;;14.50;99.90;;;;;;4224855;28;20258;-74
2023/10/21 08:07:19;;;;;;;1.80;0.63;;;14.50;99.90;;;;;;4224122;28;20204;-76
2023/10/21 08:09:21;;;;;;;1.30;0.70;;;14.50;99.90;;;;;;4222462;27;20200;-76
2023/10/21 08:11:25;;;;;;;0.97;0.70;;;14.60;99.90;;;;;;4225181;28;20842;-75
2023/10/21 08:13:26;;;;;;;1.00;0.90;;;14.60;99.90;;;;;;4220970;27;20213;-77
2023/10/21 08:15:29;;;;;;;3.23;1.20;;;14.70;99.90;;;;;;4224225;27;20284;-73
2023/10/21 08:17:31;;;;;;;1.60;1.10;;;14.70;99.90;;;;;;4222963;27;20672;-75
2023/10/21 08:19:33;;;;;;;3.37;0.83;;;14.70;99.90;;;;;;4223619;27;20218;-76
2023/10/21 08:21:34;;;;;;;2.33;1.20;;;14.80;99.90;;;;;;4226726;27;20208;-75
2023/10/21 08:23:36;;;;;;;1.53;1.00;;;14.70;99.90;;;;;;4218817;27;20295;-74
2023/10/21 08:25:42;;;;;;;1.13;0.90;;;14.80;99.90;;;;;;4223067;27;20672;-76
2023/10/21 08:27:45;;;;;;;0.90;0.60;;;15.10;99.90;;;;;;4224500;28;20220;-76
2023/10/21 08:29:53;;;;;;;2.00;0.53;;;14.90;99.90;;;;;;4224643;27;20243;-76
2023/10/21 08:31:54;;;;;;;0.60;0.60;;;15.00;99.90;;;;;;4223306;27;20312;-75
2023/10/21 08:33:56;;;;;;;1.47;1.00;;;15.00;99.90;;;;;;4230680;27;20234;-74
2023/10/21 08:35:58;;;;;;;1.63;0.63;;;15.00;99.90;;;;;;4227458;27;20208;-74
2023/10/21 08:38:01;;;;;;;2.37;0.40;;;15.10;99.90;;;;;;4224613;28;20196;-75
2023/10/21 08:40:07;;;;;;;4.60;1.10;;;15.10;99.90;;;;;;4231603;27;20212;-74
2023/10/21 08:42:09;;;;;;;0.97;0.60;;;15.20;99.90;;;;;;4222600;28;20228;-77
2023/10/21 08:44:13;;;;;;;1.23;0.60;;;15.30;99.90;;;;;;4223783;28;20271;-77
2023/10/21 08:46:16;;;;;;;0.53;0.50;;;15.30;99.90;;;;;;4222898;27;20287;-74
2023/10/21 08:48:18;;;;;;;0.63;0.53;;;15.30;99.90;;;;;;4223147;27;20247;-74
2023/10/21 08:50:20;;;;;;;2.63;0.80;;;15.30;99.90;;;;;;4222342;27;20282;-76
2023/10/21 08:52:23;;;;;;;1.10;0.60;;;15.40;99.90;;;;;;4226650;27;20593;-75
2023/10/21 08:54:26;;;;;;;0.60;0.40;;;15.40;99.90;;;;;;4226019;28;20584;-76
2023/10/21 08:56:28;;;;;;;0.70;0.30;;;15.40;99.90;;;;;;4222652;27;20224;-76
2023/10/21 08:58:31;;;;;;;0.40;0.40;;;15.50;99.90;;;;;;4218981;28;20213;-75
2023/10/21 09:00:34;;;;;;;1.40;0.60;;;15.50;99.90;;;;;;4219518;27;20660;-76
2023/10/21 09:02:36;;;;;;;0.70;0.40;;;15.60;99.90;;;;;;4218675;28;20277;-76
2023/10/21 09:04:38;;;;;;;3.40;0.77;;;15.60;99.90;;;;;;4229697;27;20257;-73
2023/10/21 09:06:54;;;;;;;0.43;0.40;;;15.70;99.90;;;;;;4226883;27;20569;-74
2023/10/21 09:08:56;;;;;;;0.53;0.40;;;15.70;99.90;;;;;;4223384;27;20225;-74
2023/10/21 09:10:59;;;;;;;0.57;0.40;;;15.70;99.90;;;;;;4227624;27;20221;-74
2023/10/21 09:13:14;;;;;;;0.73;0.50;;;15.80;99.90;;;;;;4222323;27;20786;-74
2023/10/21 09:15:16;;;;;;;1.70;0.50;;;15.80;99.90;;;;;;4224891;28;20234;-74
2023/10/21 09:17:19;;;;;;;1.60;0.90;;;15.90;99.90;;;;;;4226766;27;20571;-73
2023/10/21 09:19:26;;;;;;;1.57;0.70;;;16.00;99.90;;;;;;4226382;27;20209;-73
2023/10/21 09:21:33;;;;;;;0.50;0.37;;;16.00;99.90;;;;;;4226064;27;21081;-73
2023/10/21 09:23:51;;;;;;;1.63;0.50;;;16.10;99.90;;;;;;4226364;27;20603;-76
2023/10/21 09:25:54;;;;;;;1.83;0.40;;;16.10;99.90;;;;;;4224500;27;20244;-75
2023/10/21 09:27:56;;;;;;;1.60;0.40;;;16.10;99.90;;;;;;4224903;27;20771;-74
2023/10/21 09:29:58;;;;;;;0.60;0.47;;;16.20;99.90;;;;;;4224163;28;20301;-75
2023/10/21 09:32:02;;;;;;;0.80;0.50;;;16.20;99.90;;;;;;4226900;27;20254;-75
2023/10/21 09:34:05;;;;;;;0.30;0.30;;;16.20;99.90;;;;;;4222868;27;20208;-75
2023/10/21 09:36:07;;;;;;;1.50;0.40;;;16.20;99.90;;;;;;4219727;27;20208;-75
2023/10/21 09:38:19;;;;;;;1.33;0.40;;;16.20;99.90;;;;;;4224444;28;20842;-75
2023/10/21 09:40:24;;;;;;;0.77;0.40;;;16.10;99.90;;;;;;4224386;28;20533;-76
2023/10/21 09:42:26;;;;;;;1.27;0.80;;;16.20;99.90;;;;;;4220288;28;20231;-76
2023/10/21 09:44:29;;;;;;;1.40;0.70;;;16.20;99.90;;;;;;4222909;28;20804;-75
2023/10/21 09:46:34;;;;;;;0.63;0.47;;;16.20;99.90;;;;;;4223723;27;20688;-76
2023/10/21 09:48:41;;;;;;;2.10;0.70;;;16.30;99.90;;;;;;4221185;27;20225;-77
2023/10/21 09:50:51;;;;;;;0.40;0.30;;;16.30;99.90;;;;;;4237690;27;20206;-76
2023/10/21 09:52:56;;;;;;;0.87;0.50;;;16.40;99.90;;;;;;4220057;28;20228;-76
2023/10/21 09:55:07;;;;;;;0.90;0.50;;;16.50;99.90;;;;;;4224114;28;20278;-77
2023/10/21 09:57:11;;;;;;;0.80;0.40;;;16.50;99.90;;;;;;4220168;28;20696;-76
2023/10/21 09:59:14;;;;;;;0.93;0.43;;;16.60;99.90;;;;;;4224574;28;20256;-78
2023/10/21 10:01:18;;;;;;;0.60;0.30;;;16.70;99.90;;;;;;4221088;28;20607;-77
2023/10/21 10:03:21;;;;;;;0.40;0.30;;;16.80;99.90;;;;;;4226841;28;20291;-77
2023/10/21 10:05:23;;;;;;;0.80;0.60;;;16.80;99.90;;;;;;4225280;28;20229;-76
2023/10/21 10:07:28;;;;;;;2.17;1.23;;;16.90;99.90;;;;;;4225175;28;20207;-75
2023/10/21 10:09:30;;;;;;;0.97;0.50;;;17.00;99.90;;;;;;4227151;28;20215;-80
2023/10/21 10:11:32;;;;;;;0.60;0.33;;;17.10;99.90;;;;;;4223795;28;20204;-74
2023/10/21 10:13:36;;;;;;;0.90;0.40;;;17.00;99.90;;;;;;4223313;27;20257;-77
2023/10/21 10:15:39;;;;;;;1.03;0.40;;;17.10;99.90;;;;;;4226657;28;20216;-76
2023/10/21 10:17:47;;;;;;;0.80;0.30;;;17.10;99.90;;;;;;4224588;27;20223;-77
2023/10/21 10:19:50;;;;;;;1.70;0.40;;;17.10;99.90;;;;;;4223181;27;20621;-77
2023/10/21 10:21:52;;;;;;;2.80;0.60;;;17.20;99.90;;;;;;4225122;27;20266;-75
2023/10/21 10:23:59;;;;;;;0.70;0.40;;;17.20;99.90;;;;;;4224615;27;20759;-76
2023/10/21 10:26:02;;;;;;;0.47;0.40;;;17.20;99.90;;;;;;4222184;27;20737;-75
2023/10/21 10:28:05;;;;;;;4.80;0.77;;;17.20;99.90;;;;;;4225096;27;20216;-76
2023/10/21 10:30:15;;;;;;;2.87;0.90;;;17.30;99.90;;;;;;4225068;27;20205;-75
2023/10/21 10:32:17;;;;;;;3.07;0.70;;;17.30;99.90;;;;;;4225034;27;20313;-75
2023/10/21 10:34:19;;;;;;;2.03;0.60;;;17.20;99.90;;;;;;4223132;28;20206;-76
2023/10/21 10:36:29;;;;;;;0.53;0.40;;;17.30;99.90;;;;;;4219860;27;20209;-75